Current Conditions
Partly Cloudy
Conditions



Pressure
1016.92 (mb) - 30.03 (inHG)
Visibility

5.6 (miles) - 9.0 (km)
Temperature
13  °C
Temperature
13  °C
Dewpoint
100  %
 Humidity
Wind Speed
12  mph
10  kts
19  km/h
5.4  m/s
Wind Direction
N
45°
E
90°
135°
S
180°
225°
W
270°
315°
 260°

Due West
Airport Data
EGGD
Bristol Airport
Metar :EGGD 240620Z 26010KT 9000 FEW002 SCT008 BKN011 13/13 Q1017
Fri 24th September 07:20 am
Raw Metar Info
Raw METAR is the most common format in the world for the transmission of observational weather data. It is highly standardized through the International Civil Aviation Organization (ICAO), which allows it to be understood throughout most of the world.
API Info
Data Provided by
https://www.checkwx.com/weather/EGGD

Aviation Weather providing METAR, TAF, AIRMET, SIGMET and OUTLOOK Weather Reports
© Info
CSS/SVG/PHP scripts were developed by weather34.com for use in the weather34 template © 2015-2021

Guide Info provided by Metar-Wikipedia